Time;durP1;ratioP1;P1;durP2;ratioP2;P2;SDS_P1;SDS_P2;PMS_P1;PMS_P2;Temp;Humidity;BMP_temperature;BMP_pressure;BME280_temperature;BME280_humidity;BME280_pressure;Samples;Min_cycle;Max_cycle;Signal;HPM_P1;HPM_P2
2023/04/29 00:00:55;;;;;;;4.28;0.88;;;;;;;10.18;90.86;100651.56;5050682;28;20087;-69
2023/04/29 00:03:21;;;;;;;2.22;0.88;;;;;;;10.16;90.41;100648.28;5060545;28;20328;-70
2023/04/29 00:05:47;;;;;;;1.42;0.50;;;;;;;10.18;90.07;100648.16;5062841;28;20052;-70
2023/04/29 00:08:13;;;;;;;2.28;0.63;;;;;;;10.26;89.73;100643.94;5063994;28;20036;-69
2023/04/29 00:10:39;;;;;;;4.50;0.85;;;;;;;10.28;89.02;100636.81;5058858;28;20028;-70
2023/04/29 00:13:05;;;;;;;2.40;0.82;;;;;;;10.30;89.71;100629.69;5060612;28;20032;-70
2023/04/29 00:15:31;;;;;;;1.85;1.08;;;;;;;10.35;89.63;100636.25;5066311;28;20037;-69
2023/04/29 00:17:57;;;;;;;3.58;0.77;;;;;;;10.33;89.78;100639.00;5065782;28;20024;-69
2023/04/29 00:20:23;;;;;;;1.75;0.95;;;;;;;10.30;89.40;100628.84;5065127;28;20055;-69
2023/04/29 00:22:50;;;;;;;3.63;0.82;;;;;;;10.27;89.82;100629.97;5066140;28;20044;-70
2023/04/29 00:25:16;;;;;;;2.63;0.65;;;;;;;10.22;90.45;100626.94;5061940;28;20032;-70
2023/04/29 00:27:41;;;;;;;2.50;0.77;;;;;;;10.21;90.67;100625.28;5064535;28;20033;-70
2023/04/29 00:30:07;;;;;;;2.47;0.60;;;;;;;10.21;90.53;100627.06;5048680;28;20036;-70
2023/04/29 00:32:33;;;;;;;3.40;0.50;;;;;;;10.14;90.66;100624.16;5067163;28;20035;-69
2023/04/29 00:34:59;;;;;;;2.95;1.08;;;;;;;10.09;91.46;100626.34;5063187;28;20124;-69
2023/04/29 00:37:24;;;;;;;1.92;0.65;;;;;;;10.02;91.93;100625.25;5064403;28;20028;-70
2023/04/29 00:39:51;;;;;;;2.38;0.63;;;;;;;9.93;93.36;100636.47;5064732;28;20031;-69
2023/04/29 00:42:17;;;;;;;3.50;1.20;;;;;;;9.81;95.60;100642.81;5063032;28;20032;-70
2023/04/29 00:44:43;;;;;;;2.55;0.95;;;;;;;9.74;96.66;100649.50;5058688;28;20502;-70
2023/04/29 00:47:10;;;;;;;2.42;1.25;;;;;;;9.54;98.54;100639.03;5069211;28;20028;-70
2023/04/29 00:49:39;;;;;;;4.35;2.05;;;;;;;9.45;99.62;100636.44;5068409;28;20092;-70
2023/04/29 00:52:06;;;;;;;3.17;1.67;;;;;;;9.47;99.90;100637.94;5066933;28;20040;-70
2023/04/29 00:54:34;;;;;;;5.07;1.42;;;;;;;9.47;100.00;100647.50;5062691;28;20082;-70
2023/04/29 00:57:01;;;;;;;3.47;1.15;;;;;;;9.55;98.49;100647.66;5063855;28;20446;-70
2023/04/29 00:59:31;;;;;;;5.57;0.90;;;;;;;9.63;97.00;100653.84;5065419;28;20039;-69
2023/04/29 01:02:02;;;;;;;1.88;0.88;;;;;;;9.70;95.99;100648.94;5071663;28;20035;-69
2023/04/29 01:04:31;;;;;;;4.10;0.77;;;;;;;9.73;94.93;100634.84;5063800;28;20052;-69
2023/04/29 01:06:57;;;;;;;3.17;0.63;;;;;;;9.72;95.25;100628.00;5068093;28;20056;-70
2023/04/29 01:09:54;;;;;;;2.20;0.45;;;;;;;9.72;94.49;100612.38;5066272;28;20533;-69
2023/04/29 01:12:33;;;;;;;1.73;0.50;;;;;;;9.70;94.14;100614.28;5045928;28;20098;-69
2023/04/29 01:15:20;;;;;;;1.92;0.50;;;;;;;9.70;93.39;100603.88;5060677;28;20032;-69
2023/04/29 01:18:18;;;;;;;5.15;0.80;;;;;;;9.76;92.92;100598.16;5065156;28;20033;-69
2023/04/29 01:20:45;;;;;;;3.65;0.60;;;;;;;9.87;93.15;100592.81;5058877;28;20044;-69
2023/04/29 01:23:11;;;;;;;3.10;0.65;;;;;;;9.85;93.19;100592.94;5067884;28;20040;-69
2023/04/29 01:25:37;;;;;;;2.97;0.50;;;;;;;9.85;93.31;100608.56;5065818;28;20115;-69
2023/04/29 01:28:43;;;;;;;5.13;0.93;;;;;;;9.84;92.83;100619.09;5068687;28;20041;-69
2023/04/29 01:31:17;;;;;;;3.05;0.63;;;;;;;9.84;92.75;100630.34;5065083;28;20042;-69
2023/04/29 01:34:10;;;;;;;1.00;0.50;;;;;;;9.77;92.44;100623.22;5070108;28;20281;-69
2023/04/29 01:37:06;;;;;;;2.97;0.85;;;;;;;9.57;93.67;100602.34;5072264;28;20021;-69
2023/04/29 01:39:34;;;;;;;2.03;0.60;;;;;;;9.56;95.08;100599.88;5059128;28;20143;-69
2023/04/29 01:42:30;;;;;;;1.98;0.60;;;;;;;9.59;95.10;100602.22;5068735;28;20052;-70
2023/04/29 01:44:59;;;;;;;1.90;0.50;;;;;;;9.61;95.36;100595.09;4974206;28;20039;-70
2023/04/29 01:47:26;;;;;;;4.22;0.65;;;;;;;9.61;95.29;100593.31;4982088;28;20034;-69
2023/04/29 01:49:52;;;;;;;1.20;0.50;;;;;;;9.60;95.47;100591.69;4985059;28;20514;-70
2023/04/29 01:52:18;;;;;;;1.50;0.45;;;;;;;9.58;94.80;100575.38;4986751;28;20085;-70
2023/04/29 01:54:44;;;;;;;1.85;0.47;;;;;;;9.61;95.45;100580.31;4981737;28;20133;-69
2023/04/29 01:57:10;;;;;;;3.15;0.80;;;;;;;9.65;95.29;100576.50;4987309;28;20533;-69
2023/04/29 01:59:35;;;;;;;4.10;0.63;;;;;;;9.75;94.76;100580.88;4984707;28;20034;-69
2023/04/29 02:02:01;;;;;;;3.13;0.45;;;;;;;9.81;94.17;100588.97;4982843;28;20061;-70
2023/04/29 02:04:27;;;;;;;6.93;0.55;;;;;;;9.83;94.44;100581.03;4976766;28;20560;-69
2023/04/29 02:06:53;;;;;;;3.35;0.98;;;;;;;9.85;94.47;100581.72;4981415;28;20066;-70
2023/04/29 02:09:18;;;;;;;2.20;0.77;;;;;;;9.83;94.75;100581.03;4982710;28;20046;-70
2023/04/29 02:11:44;;;;;;;5.05;0.75;;;;;;;9.79;95.14;100585.69;4987918;28;20076;-69
2023/04/29 02:14:11;;;;;;;1.80;0.60;;;;;;;9.78;95.53;100588.41;4976017;28;20507;-70
2023/04/29 02:16:37;;;;;;;3.13;0.60;;;;;;;9.78;95.56;100585.81;4981178;28;20062;-70
2023/04/29 02:19:03;;;;;;;1.88;0.57;;;;;;;9.74;95.92;100589.66;4982378;28;20050;-69
2023/04/29 02:21:30;;;;;;;2.72;0.68;;;;;;;9.74;95.28;100581.84;5011345;28;20060;-69
2023/04/29 02:23:56;;;;;;;1.83;0.40;;;;;;;9.70;95.04;100572.66;5048021;28;20120;-69
2023/04/29 02:26:22;;;;;;;2.03;0.40;;;;;;;9.64;95.39;100569.66;5055045;28;20036;-69
2023/04/29 02:28:48;;;;;;;2.20;0.60;;;;;;;9.56;95.63;100566.06;5042768;28;20111;-69
2023/04/29 02:31:14;;;;;;;3.38;0.40;;;;;;;9.54;95.80;100562.78;5050780;28;20155;-69
2023/04/29 02:33:40;;;;;;;3.72;0.50;;;;;;;9.53;95.97;100558.53;5044966;28;20456;-68
2023/04/29 02:36:06;;;;;;;1.05;0.57;;;;;;;9.55;95.90;100560.06;5041160;28;20030;-69
2023/04/29 02:38:32;;;;;;;2.55;0.75;;;;;;;9.58;95.67;100551.97;5048828;28;20100;-70
2023/04/29 02:40:58;;;;;;;3.42;0.50;;;;;;;9.58;95.64;100554.56;5048782;28;20033;-69
2023/04/29 02:43:25;;;;;;;5.43;0.47;;;;;;;9.55;95.28;100541.84;5047074;28;20539;-69
2023/04/29 02:45:50;;;;;;;3.53;0.80;;;;;;;9.62;95.65;100535.16;5048104;28;20040;-68
2023/04/29 02:48:16;;;;;;;2.38;0.60;;;;;;;9.60;95.47;100534.47;5043090;28;20025;-69
2023/04/29 02:50:42;;;;;;;4.18;0.50;;;;;;;9.64;95.57;100528.03;5041137;28;20115;-69
2023/04/29 02:53:08;;;;;;;2.80;0.60;;;;;;;9.65;95.76;100528.84;5048792;28;20091;-69
2023/04/29 02:55:34;;;;;;;3.58;0.57;;;;;;;9.68;95.30;100518.16;5056321;28;20033;-69
2023/04/29 02:58:00;;;;;;;5.03;0.52;;;;;;;9.72;95.41;100510.91;5047082;28;20034;-69
2023/04/29 03:00:26;;;;;;;3.25;0.60;;;;;;;9.69;95.53;100514.59;5040021;28;20032;-69
2023/04/29 03:02:52;;;;;;;2.78;0.50;;;;;;;9.67;95.46;100513.09;5050400;28;20039;-69
2023/04/29 03:05:18;;;;;;;1.33;0.40;;;;;;;9.62;95.22;100532.53;5042039;28;20025;-69
2023/04/29 03:07:44;;;;;;;2.10;0.50;;;;;;;9.57;95.71;100526.09;5049067;28;20081;-70
2023/04/29 03:10:11;;;;;;;3.35;0.50;;;;;;;9.53;96.36;100528.16;5065780;28;20043;-70
2023/04/29 03:12:38;;;;;;;2.80;0.68;;;;;;;9.49;96.87;100544.16;5069474;28;20047;-70
2023/04/29 03:15:09;;;;;;;1.48;0.50;;;;;;;9.39;98.03;100546.78;5068403;28;20047;-70
2023/04/29 03:17:35;;;;;;;0.95;0.30;;;;;;;9.23;98.82;100543.88;5048918;28;20038;-70
2023/04/29 03:20:02;;;;;;;1.50;0.60;;;;;;;9.14;99.54;100539.47;5063511;28;20375;-70
2023/04/29 03:22:27;;;;;;;1.90;0.88;;;;;;;9.17;99.18;100534.00;5065472;28;20040;-70
2023/04/29 03:24:53;;;;;;;2.00;0.60;;;;;;;9.27;98.26;100532.25;5060686;28;20033;-69
2023/04/29 03:27:19;;;;;;;2.65;0.77;;;;;;;9.38;97.30;100533.91;5064871;28;20063;-70
2023/04/29 03:29:46;;;;;;;1.95;0.50;;;;;;;9.40;97.23;100538.03;5064541;28;20029;-70
2023/04/29 03:32:12;;;;;;;1.70;0.60;;;;;;;9.42;97.43;100533.50;5062085;28;20471;-70
2023/04/29 03:34:37;;;;;;;1.15;0.40;;;;;;;9.46;96.89;100534.84;5062537;28;20039;-70
2023/04/29 03:37:03;;;;;;;2.45;0.50;;;;;;;9.53;96.30;100535.97;5061624;28;20033;-70
2023/04/29 03:39:31;;;;;;;2.40;0.70;;;;;;;9.57;96.44;100531.31;5071705;28;20127;-70
2023/04/29 03:41:58;;;;;;;2.20;0.50;;;;;;;9.56;96.10;100530.47;5046635;28;20044;-69
2023/04/29 03:44:25;;;;;;;3.28;0.50;;;;;;;9.58;96.03;100538.97;5066132;28;20032;-69
2023/04/29 03:46:51;;;;;;;4.10;0.85;;;;;;;9.63;95.53;100531.59;5064680;28;20453;-70
2023/04/29 03:49:17;;;;;;;2.00;0.40;;;;;;;9.67;95.30;100523.50;5061683;28;20033;-70
2023/04/29 03:51:44;;;;;;;4.25;0.85;;;;;;;9.67;95.55;100523.50;5060433;28;20369;-70
2023/04/29 03:54:12;;;;;;;3.03;0.65;;;;;;;9.65;95.66;100508.84;5060994;28;20097;-69
2023/04/29 03:56:37;;;;;;;2.08;0.50;;;;;;;9.65;95.55;100497.63;5067196;28;20032;-69
2023/04/29 03:59:03;;;;;;;1.60;0.47;;;;;;;9.67;95.64;100492.28;5065118;28;20067;-70
2023/04/29 04:01:29;;;;;;;3.42;0.50;;;;;;;9.69;95.67;100483.38;5065474;28;20082;-69
2023/04/29 04:03:55;;;;;;;1.83;0.55;;;;;;;9.71;95.45;100488.47;5066921;28;20036;-70
2023/04/29 04:06:21;;;;;;;5.93;0.95;;;;;;;9.71;95.47;100483.25;5068142;28;20123;-70
2023/04/29 04:08:47;;;;;;;2.05;0.95;;;;;;;9.73;95.46;100489.13;5047078;28;20147;-69
2023/04/29 04:11:14;;;;;;;1.65;0.50;;;;;;;9.74;95.50;100491.59;5069341;28;20051;-70
2023/04/29 04:13:42;;;;;;;2.08;0.70;;;;;;;9.73;96.38;100486.53;5067885;28;20035;-70
2023/04/29 04:16:09;;;;;;;5.05;1.23;;;;;;;9.71;97.63;100496.25;5065771;28;20063;-70
2023/04/29 04:18:36;;;;;;;1.95;0.80;;;;;;;9.72;98.12;100493.53;5063881;28;20032;-70
2023/04/29 04:21:09;;;;;;;2.78;0.63;;;;;;;9.74;99.21;100511.59;5064698;28;20448;-70
2023/04/29 04:23:36;;;;;;;7.60;0.70;;;;;;;9.74;99.75;100519.41;5069092;28;20032;-70
2023/04/29 04:26:02;;;;;;;2.33;0.65;;;;;;;9.71;99.06;100527.47;5068748;28;20037;-70
2023/04/29 04:28:28;;;;;;;1.92;0.60;;;;;;;9.74;97.82;100542.81;5072257;28;20411;-70
2023/04/29 04:30:54;;;;;;;4.05;0.60;;;;;;;9.65;97.06;100549.66;5064109;28;20041;-70
2023/04/29 04:33:20;;;;;;;4.20;0.45;;;;;;;9.53;97.00;100556.75;5069987;28;20071;-69
2023/04/29 04:35:46;;;;;;;2.38;0.80;;;;;;;9.51;97.88;100563.88;5072460;28;20066;-69
2023/04/29 04:38:12;;;;;;;1.95;0.50;;;;;;;9.53;97.77;100556.75;5064892;28;20079;-70
2023/04/29 04:40:41;;;;;;;2.25;0.60;;;;;;;9.57;97.37;100568.53;5061623;28;20484;-70
2023/04/29 04:43:06;;;;;;;1.05;0.50;;;;;;;9.63;97.41;100568.00;5070833;28;20044;-70
2023/04/29 04:45:32;;;;;;;1.02;0.52;;;;;;;9.68;96.89;100569.38;5068510;28;20076;-69
2023/04/29 04:47:57;;;;;;;4.53;0.90;;;;;;;9.73;96.53;100567.19;5040861;28;20036;-69
2023/04/29 04:50:23;;;;;;;1.90;0.60;;;;;;;9.80;95.84;100563.91;5060043;28;20024;-70
2023/04/29 04:52:48;;;;;;;3.33;0.55;;;;;;;9.90;94.98;100561.31;5043267;28;20042;-69
2023/04/29 04:55:14;;;;;;;2.60;0.68;;;;;;;9.96;94.07;100553.75;5069645;28;20036;-70
2023/04/29 04:57:39;;;;;;;4.05;0.63;;;;;;;9.97;94.01;100544.16;5067121;28;20044;-70
2023/04/29 05:00:05;;;;;;;1.27;0.47;;;;;;;9.94;94.08;100529.63;5071617;28;20036;-70
2023/04/29 05:02:31;;;;;;;2.33;1.15;;;;;;;9.90;93.81;100523.09;5068392;28;20050;-70
2023/04/29 05:04:56;;;;;;;1.63;0.55;;;;;;;9.90;94.18;100523.09;5073122;28;20041;-70
2023/04/29 05:07:22;;;;;;;3.13;1.08;;;;;;;9.94;94.84;100527.03;5072065;28;20055;-70
2023/04/29 05:09:47;;;;;;;3.92;1.38;;;;;;;10.03;94.53;100533.19;5065670;28;20435;-70
2023/04/29 05:12:13;;;;;;;3.20;1.05;;;;;;;10.09;94.64;100532.63;5071866;28;20034;-70
2023/04/29 05:14:38;;;;;;;3.63;0.95;;;;;;;10.12;94.73;100532.38;5071155;28;20162;-70
2023/04/29 05:17:03;;;;;;;3.95;1.13;;;;;;;10.14;95.47;100540.84;5069795;28;20036;-70
2023/04/29 05:19:29;;;;;;;3.30;0.90;;;;;;;10.15;95.39;100545.09;5067534;28;20029;-70
2023/04/29 05:21:55;;;;;;;2.10;0.82;;;;;;;10.21;94.53;100552.38;5044275;28;20492;-70
2023/04/29 05:24:20;;;;;;;5.05;1.15;;;;;;;10.27;93.36;100562.25;5065395;28;20035;-70
2023/04/29 05:26:45;;;;;;;1.90;0.60;;;;;;;10.26;93.01;100565.81;5070987;28;20394;-70
2023/04/29 05:29:11;;;;;;;6.65;0.80;;;;;;;10.21;93.07;100568.00;5068568;28;20036;-69
2023/04/29 05:31:37;;;;;;;2.83;0.50;;;;;;;10.18;93.22;100570.03;5063467;28;20024;-70
2023/04/29 05:34:06;;;;;;;2.88;0.70;;;;;;;10.15;92.77;100571.13;5067618;28;20469;-70
2023/04/29 05:36:32;;;;;;;1.77;0.50;;;;;;;10.16;93.45;100585.81;5071611;28;20446;-70
2023/04/29 05:38:58;;;;;;;2.92;0.82;;;;;;;10.18;93.16;100578.66;5071341;28;20048;-70
2023/04/29 05:41:24;;;;;;;2.75;0.93;;;;;;;10.20;93.46;100582.00;5083149;28;20174;-70
2023/04/29 05:43:50;;;;;;;2.97;1.33;;;;;;;10.25;93.09;100577.19;5070478;28;20544;-70
2023/04/29 05:46:16;;;;;;;1.60;0.63;;;;;;;10.28;92.66;100584.72;5061797;28;20033;-70
2023/04/29 05:48:42;;;;;;;1.27;0.77;;;;;;;10.31;92.33;100581.03;5066601;28;20484;-70
2023/04/29 05:51:07;;;;;;;1.10;0.40;;;;;;;10.39;91.91;100591.56;5062878;28;20029;-71
2023/04/29 05:53:34;;;;;;;1.88;0.77;;;;;;;10.49;91.47;100581.91;5062489;28;20079;-71
2023/04/29 05:56:03;;;;;;;2.78;0.65;;;;;;;10.57;91.98;100584.66;5069766;28;20123;-70
2023/04/29 05:58:29;;;;;;;2.10;0.80;;;;;;;10.64;91.51;100585.72;5071470;28;20035;-70
2023/04/29 06:00:54;;;;;;;2.58;0.60;;;;;;;10.72;91.18;100581.59;5079041;28;20024;-71
2023/04/29 06:03:19;;;;;;;2.75;0.60;;;;;;;10.77;90.90;100577.59;5069110;28;20040;-71
2023/04/29 06:05:45;;;;;;;2.00;0.90;;;;;;;10.82;90.08;100572.78;5069559;28;20124;-70
2023/04/29 06:08:10;;;;;;;4.15;1.40;;;;;;;10.85;90.62;100571.69;5062289;28;20034;-71
2023/04/29 06:10:36;;;;;;;3.20;1.13;;;;;;;10.88;90.04;100573.97;5069313;28;20107;-70
2023/04/29 06:13:02;;;;;;;2.70;0.70;;;;;;;10.91;89.64;100571.91;5068764;28;20028;-70
2023/04/29 06:15:27;;;;;;;1.95;0.57;;;;;;;10.98;89.64;100578.19;5070171;28;20044;-70
2023/04/29 06:17:53;;;;;;;1.95;0.93;;;;;;;11.09;89.54;100582.38;5068288;28;20513;-70
2023/04/29 06:20:18;;;;;;;2.53;0.70;;;;;;;11.15;89.32;100587.03;5066420;28;20443;-70
2023/04/29 06:22:44;;;;;;;3.08;0.95;;;;;;;11.15;89.93;100594.03;5065833;28;20032;-70
2023/04/29 06:25:09;;;;;;;1.88;0.70;;;;;;;11.14;90.18;100597.59;5064464;28;20114;-69
2023/04/29 06:27:35;;;;;;;1.58;0.60;;;;;;;11.14;90.81;100595.00;5065832;28;20082;-71
2023/04/29 06:30:00;;;;;;;2.15;0.85;;;;;;;11.16;91.57;100593.06;5068843;28;20491;-70
2023/04/29 06:32:26;;;;;;;4.53;0.90;;;;;;;11.20;91.83;100589.19;5065062;28;20040;-71
2023/04/29 06:34:51;;;;;;;3.25;0.90;;;;;;;11.29;91.50;100596.16;5066000;28;20033;-70
2023/04/29 06:37:16;;;;;;;4.22;1.00;;;;;;;11.34;91.09;100601.75;5074664;28;20035;-71
2023/04/29 06:39:42;;;;;;;3.30;0.70;;;;;;;11.37;90.48;100604.03;5076054;28;20080;-71
2023/04/29 06:42:07;;;;;;;6.05;0.85;;;;;;;11.41;90.61;100600.19;5070328;28;20032;-70
2023/04/29 06:44:33;;;;;;;2.67;0.60;;;;;;;11.42;89.49;100606.22;5064747;28;20032;-70
2023/04/29 06:46:58;;;;;;;0.75;0.40;;;;;;;11.38;88.27;100604.88;5072628;28;20423;-70
2023/04/29 06:49:24;;;;;;;3.10;0.60;;;;;;;11.39;88.94;100606.50;5075999;28;20111;-71
2023/04/29 06:51:53;;;;;;;5.22;0.70;;;;;;;11.43;88.62;100600.84;5066470;28;20061;-70
2023/04/29 06:54:19;;;;;;;4.38;0.95;;;;;;;11.53;88.35;100593.78;5065446;28;20032;-71
2023/04/29 06:56:46;;;;;;;4.03;0.50;;;;;;;11.64;88.21;100600.59;5071941;28;20388;-70
2023/04/29 06:59:12;;;;;;;5.32;0.55;;;;;;;11.69;87.41;100602.75;5068957;28;20047;-70
2023/04/29 07:01:38;;;;;;;1.70;0.50;;;;;;;11.70;87.05;100605.22;5064228;28;20035;-71
2023/04/29 07:04:04;;;;;;;2.22;0.70;;;;;;;11.71;86.95;100606.88;5064488;28;20119;-69
2023/04/29 07:06:29;;;;;;;2.75;0.77;;;;;;;11.72;86.43;100610.28;5068294;28;20438;-70
2023/04/29 07:08:55;;;;;;;2.55;0.60;;;;;;;11.76;86.40;100609.84;5064719;28;20480;-72
2023/04/29 07:11:20;;;;;;;4.65;0.70;;;;;;;11.79;85.85;100603.56;5068907;28;20388;-70
2023/04/29 07:13:46;;;;;;;2.25;0.57;;;;;;;11.83;85.66;100608.28;5068914;28;20101;-70
2023/04/29 07:16:16;;;;;;;3.17;0.43;;;;;;;11.89;85.04;100606.88;5065835;28;20025;-71
2023/04/29 07:18:42;;;;;;;1.35;0.50;;;;;;;11.99;84.97;100614.66;5069050;28;20039;-70
2023/04/29 07:21:07;;;;;;;1.85;0.43;;;;;;;12.05;84.94;100611.44;5068729;28;20028;-71
2023/04/29 07:23:33;;;;;;;2.75;0.50;;;;;;;12.12;84.48;100609.88;5067473;28;20429;-70
2023/04/29 07:26:07;;;;;;;3.00;0.50;;;;;;;12.17;84.67;100603.22;5068459;28;20042;-70
2023/04/29 07:28:32;;;;;;;2.35;0.40;;;;;;;12.22;84.43;100611.44;5064068;28;20024;-70
2023/04/29 07:30:58;;;;;;;2.38;0.50;;;;;;;12.26;84.36;100596.28;5065422;28;20041;-70
2023/04/29 07:33:23;;;;;;;3.40;0.50;;;;;;;12.30;83.58;100598.41;5068868;28;20411;-70
2023/04/29 07:35:49;;;;;;;2.78;0.45;;;;;;;12.40;83.63;100597.50;5069199;28;20056;-70
2023/04/29 07:38:14;;;;;;;1.77;0.40;;;;;;;12.51;83.66;100595.44;5067997;28;20709;-70
2023/04/29 07:40:41;;;;;;;3.83;0.45;;;;;;;12.55;83.06;100609.03;5069086;28;20377;-71
2023/04/29 07:43:08;;;;;;;2.63;0.82;;;;;;;12.51;82.97;100615.53;5068617;28;20028;-70
2023/04/29 07:45:33;;;;;;;2.95;0.50;;;;;;;12.52;82.31;100612.78;5062166;28;20052;-70
2023/04/29 07:47:59;;;;;;;1.33;0.30;;;;;;;12.59;82.38;100628.66;5069224;28;20111;-70
2023/04/29 07:50:24;;;;;;;0.70;0.40;;;;;;;12.65;82.28;100637.69;5067544;28;20131;-70
2023/04/29 07:52:50;;;;;;;4.45;0.40;;;;;;;12.73;82.44;100632.50;5072374;28;20123;-70
2023/04/29 07:55:16;;;;;;;2.17;0.40;;;;;;;12.75;82.37;100634.00;5060897;28;20059;-70
2023/04/29 07:57:41;;;;;;;3.75;0.55;;;;;;;12.78;81.92;100623.22;5066291;28;20396;-72
2023/04/29 08:00:08;;;;;;;4.53;0.70;;;;;;;12.79;82.37;100613.56;5051526;28;20036;-70
2023/04/29 08:02:34;;;;;;;3.10;0.98;;;;;;;12.87;82.82;100606.59;5072424;28;20395;-70
2023/04/29 08:04:59;;;;;;;4.22;0.98;;;;;;;13.03;82.62;100608.47;5073158;28;20206;-71
2023/04/29 08:07:25;;;;;;;1.27;0.40;;;;;;;13.19;82.01;100615.63;5071792;28;20048;-70
2023/04/29 08:09:50;;;;;;;5.05;0.70;;;;;;;13.25;81.27;100613.16;5072686;28;20036;-70
2023/04/29 08:12:16;;;;;;;4.45;0.80;;;;;;;13.26;81.94;100612.19;5069700;28;20025;-70
2023/04/29 08:14:41;;;;;;;2.35;0.68;;;;;;;13.39;81.87;100600.44;5072100;28;20456;-70
2023/04/29 08:17:07;;;;;;;2.80;0.30;;;;;;;13.50;81.57;100597.53;5072630;28;20376;-70
2023/04/29 08:19:33;;;;;;;2.85;0.50;;;;;;;13.70;80.89;100603.31;5070442;28;20036;-70
2023/04/29 08:21:59;;;;;;;5.65;0.68;;;;;;;13.87;80.08;100611.00;5072800;28;20047;-70
2023/04/29 08:24:25;;;;;;;2.17;0.60;;;;;;;13.86;79.76;100622.47;5071370;28;20025;-70
2023/04/29 08:26:51;;;;;;;1.50;0.40;;;;;;;13.81;79.53;100606.41;5063604;28;20043;-70
2023/04/29 08:29:17;;;;;;;4.57;0.40;;;;;;;13.96;79.55;100606.59;5071722;28;20503;-69
2023/04/29 08:31:42;;;;;;;5.75;0.50;;;;;;;14.11;78.90;100602.34;5071499;28;20121;-70
2023/04/29 08:34:08;;;;;;;4.25;0.52;;;;;;;14.28;79.05;100614.44;5071569;28;20197;-69
2023/04/29 08:36:33;;;;;;;2.45;0.40;;;;;;;14.36;78.28;100616.25;5071758;28;20126;-70
2023/04/29 08:38:59;;;;;;;2.33;0.82;;;;;;;14.45;77.73;100610.06;5072092;28;20388;-69
2023/04/29 08:41:24;;;;;;;1.33;0.40;;;;;;;14.46;77.31;100610.88;5068308;28;20482;-69
2023/04/29 08:43:50;;;;;;;2.15;0.40;;;;;;;14.51;77.39;100611.19;5071482;28;20024;-70
2023/04/29 08:46:16;;;;;;;2.60;0.55;;;;;;;14.58;76.30;100606.94;5071330;28;20106;-69
2023/04/29 08:48:43;;;;;;;2.25;0.50;;;;;;;14.69;76.37;100603.94;5068951;28;20035;-70
2023/04/29 08:51:11;;;;;;;1.15;0.47;;;;;;;14.76;77.09;100597.03;5069512;28;20127;-69
2023/04/29 08:53:36;;;;;;;2.03;0.50;;;;;;;14.78;76.63;100589.81;5066414;28;20034;-69
2023/04/29 08:56:12;;;;;;;1.27;0.40;;;;;;;14.88;75.91;100587.00;5070371;28;20028;-69
2023/04/29 08:58:39;;;;;;;2.47;0.40;;;;;;;14.90;76.58;100598.97;5068440;28;20116;-69
2023/04/29 09:01:08;;;;;;;3.58;0.45;;;;;;;15.01;76.33;100597.78;5071123;28;20052;-69
2023/04/29 09:03:43;;;;;;;2.03;0.47;;;;;;;14.99;76.69;100601.56;5067621;28;20043;-69
2023/04/29 09:06:11;;;;;;;4.00;0.45;;;;;;;15.06;74.07;100598.09;5068078;28;20065;-68
2023/04/29 09:08:38;;;;;;;2.00;0.30;;;;;;;15.14;75.29;100602.47;5070058;28;20559;-69
2023/04/29 09:11:06;;;;;;;1.27;0.47;;;;;;;15.13;75.92;100603.44;5070953;28;20044;-69
2023/04/29 09:13:32;;;;;;;3.72;0.60;;;;;;;15.18;75.60;100607.19;5071081;28;20377;-68
2023/04/29 09:15:58;;;;;;;3.80;0.60;;;;;;;15.43;75.76;100600.03;5070981;28;20036;-69
2023/04/29 09:18:43;;;;;;;4.05;0.40;;;;;;;15.53;72.13;100595.38;5071126;28;20064;-69
2023/04/29 09:21:12;;;;;;;2.33;0.50;;;;;;;15.95;73.72;100599.41;5069813;28;20893;-69
2023/04/29 09:23:37;;;;;;;2.80;0.40;;;;;;;16.11;74.35;100599.25;5071688;28;20041;-69
2023/04/29 09:26:03;;;;;;;1.98;0.30;;;;;;;16.17;74.53;100608.22;5068899;28;20040;-68
2023/04/29 09:28:28;;;;;;;3.40;0.40;;;;;;;16.21;74.55;100599.81;5070884;28;20357;-69
2023/04/29 09:30:53;;;;;;;3.40;0.50;;;;;;;16.36;75.35;100602.50;5052846;28;20377;-69
2023/04/29 09:33:19;;;;;;;3.08;0.50;;;;;;;16.66;74.63;100602.53;5070372;28;20063;-68
2023/04/29 09:35:45;;;;;;;1.90;0.40;;;;;;;16.83;74.57;100604.81;5071188;28;20081;-69
2023/04/29 09:38:15;;;;;;;5.13;0.40;;;;;;;17.02;73.42;100613.97;5069030;28;20032;-69
2023/04/29 09:40:42;;;;;;;5.53;0.70;;;;;;;17.01;74.00;100614.19;5071218;28;20107;-68
2023/04/29 09:43:17;;;;;;;0.90;0.38;;;;;;;17.02;73.31;100602.63;5070205;28;20032;-68
2023/04/29 09:45:45;;;;;;;5.45;0.40;;;;;;;17.13;74.51;100596.91;5065000;28;20055;-70
2023/04/29 09:48:11;;;;;;;2.85;0.50;;;;;;;17.34;73.36;100596.94;5069687;28;20036;-70
2023/04/29 09:50:38;;;;;;;2.05;0.40;;;;;;;17.46;74.26;100598.09;5070895;28;20049;-69
2023/04/29 09:53:07;;;;;;;4.53;0.50;;;;;;;17.57;73.55;100599.41;5072613;28;20131;-69
2023/04/29 09:55:34;;;;;;;2.63;0.40;;;;;;;17.67;73.10;100597.31;5064686;28;20449;-68
2023/04/29 09:58:00;;;;;;;1.58;0.30;;;;;;;17.68;72.55;100598.97;5071466;28;20052;-70
2023/04/29 10:00:31;;;;;;;1.80;0.30;;;;;;;17.70;71.17;100596.13;5054920;28;20033;-68
2023/04/29 10:03:00;;;;;;;1.30;0.30;;;;;;;17.83;71.63;100604.19;5053337;28;20098;-70
2023/04/29 10:05:28;;;;;;;2.00;0.50;;;;;;;17.90;71.02;100597.97;5063056;28;20040;-69
2023/04/29 10:07:55;;;;;;;2.78;0.50;;;;;;;18.01;71.94;100601.91;5070573;28;20042;-69
2023/04/29 10:10:23;;;;;;;3.70;0.30;;;;;;;18.12;70.99;100596.13;5052255;28;20039;-70
2023/04/29 10:12:52;;;;;;;2.17;0.32;;;;;;;18.12;72.35;100600.56;5070165;28;20031;-69
2023/04/29 10:15:32;;;;;;;1.60;0.40;;;;;;;18.18;71.57;100605.91;5069101;28;20025;-69
2023/04/29 10:18:17;;;;;;;3.22;0.30;;;;;;;18.27;69.82;100603.13;5064798;28;20042;-70
2023/04/29 10:20:46;;;;;;;4.90;0.65;;;;;;;17.92;72.77;100599.59;5068767;28;20112;-69
2023/04/29 10:23:16;;;;;;;1.98;0.30;;;;;;;17.93;72.60;100593.31;5069684;28;20086;-69
2023/04/29 10:25:43;;;;;;;3.58;0.40;;;;;;;18.04;72.10;100590.97;5069209;28;20534;-70
2023/04/29 10:28:15;;;;;;;2.08;0.40;;;;;;;18.15;70.27;100590.47;5064908;28;20060;-69
2023/04/29 10:30:43;;;;;;;3.03;0.40;;;;;;;18.06;68.66;100586.34;5069839;28;20131;-69
2023/04/29 10:33:10;;;;;;;2.22;0.50;;;;;;;18.09;68.95;100587.78;5065362;28;20036;-70
2023/04/29 10:35:36;;;;;;;1.23;0.50;;;;;;;18.16;68.95;100584.19;5069277;28;20045;-69
2023/04/29 10:38:10;;;;;;;3.92;0.60;;;;;;;18.00;66.18;100581.81;5072852;28;20503;-70
2023/04/29 10:40:45;;;;;;;5.20;0.40;;;;;;;17.79;67.42;100574.75;5067282;28;20121;-69
2023/04/29 10:43:11;;;;;;;1.48;0.40;;;;;;;17.78;68.17;100577.56;5069478;28;20032;-70
2023/04/29 10:45:37;;;;;;;3.20;0.40;;;;;;;17.83;67.54;100570.75;5069162;28;20027;-70
2023/04/29 10:48:05;;;;;;;2.25;0.60;;;;;;;17.83;68.32;100575.19;5068949;28;20376;-69
2023/04/29 10:50:32;;;;;;;2.78;0.60;;;;;;;17.96;69.32;100567.38;5069677;28;20032;-69
2023/04/29 10:53:01;;;;;;;1.10;0.35;;;;;;;18.11;68.16;100560.22;5063114;28;20555;-70
2023/04/29 10:55:27;;;;;;;3.90;0.60;;;;;;;18.03;68.19;100565.63;5064262;28;20075;-69
2023/04/29 10:57:55;;;;;;;3.60;0.73;;;;;;;18.03;67.36;100555.06;5069012;28;20639;-69
2023/04/29 11:00:28;;;;;;;1.80;0.57;;;;;;;18.01;65.09;100551.81;5069185;28;20036;-69
2023/04/29 11:02:55;;;;;;;1.58;0.50;;;;;;;18.10;68.75;100552.50;5066512;28;20557;-69
2023/04/29 11:05:34;;;;;;;3.83;0.60;;;;;;;18.11;66.59;100544.38;5068926;28;20405;-69
2023/04/29 11:08:15;;;;;;;3.03;0.68;;;;;;;17.97;67.68;100545.28;5069845;28;20079;-70
2023/04/29 11:10:41;;;;;;;3.75;0.50;;;;;;;18.02;67.50;100537.63;5066447;28;20024;-68
2023/04/29 11:13:27;;;;;;;6.35;0.77;;;;;;;18.14;68.27;100540.56;5068454;28;20020;-70
2023/04/29 11:16:03;;;;;;;1.35;0.50;;;;;;;18.15;66.92;100531.63;5069026;28;20066;-69
2023/04/29 11:18:28;;;;;;;;;;;;;;;17.98;65.24;100536.38;5069556;28;20032;-70
2023/04/29 11:21:21;;;;;;;3.13;0.57;;;;;;;17.83;65.27;100527.75;5069005;28;19912;-69
2023/04/29 11:23:46;;;;;;;5.22;0.90;;;;;;;17.77;67.39;100536.41;5064154;28;20496;-69
2023/04/29 11:26:12;;;;;;;2.33;0.50;;;;;;;17.66;67.67;100524.56;5068109;28;20029;-69
2023/04/29 11:28:40;;;;;;;3.22;0.65;;;;;;;17.86;68.02;100522.91;5069330;28;20032;-69
2023/04/29 11:31:06;;;;;;;3.65;1.10;;;;;;;18.06;67.21;100523.06;5065101;28;20036;-69